Willis, Texas
Current Conditions -  °F | °C
As of 11:53 AM on Saturday 25 Oct 2014 (Local Time) from KCXO Reporting Station
Clear Clear  
Wind Chill: 78°   Ceiling: Unl
Heat Index: 79°   Visibility: 10mi
Dew Point: 58°   Wind: 0mph
Humidity: 50%   Direction: NA
Pressure: 30.19"   Gusts: NA
Location:  30.42°N, 95.48°W
Report Text: KCXO 251653Z 00000KT 10SM CLR 26/14 A3019 RMK AO2 SLP219 T02560144
Loading
Personal Weather Stations






























Interactive Weather Map
Tropical Storm Tracking
New forecast layout! Learn more

10-Day Weather Forecast

Advertisements
Track Severe Weather on mobile